createdAt,value
2022-09-30T00:00:31.663Z,11.20
2022-09-30T00:03:02.180Z,11.20
2022-09-30T00:05:31.253Z,11.20
2022-09-30T00:08:00.204Z,11.30
2022-09-30T00:10:29.335Z,11.20
2022-09-30T00:12:58.651Z,11.30
2022-09-30T00:15:28.226Z,11.20
2022-09-30T00:17:57.179Z,11.20
2022-09-30T00:20:27.561Z,11.20
2022-09-30T00:22:56.459Z,11.20
2022-09-30T00:25:25.409Z,11.20
2022-09-30T00:27:54.332Z,11.20
2022-09-30T00:30:25.143Z,11.20
2022-09-30T00:32:54.389Z,11.10
2022-09-30T00:35:23.720Z,11.10
2022-09-30T00:37:55.176Z,11.10
2022-09-30T00:40:25.961Z,11.10
2022-09-30T00:42:55.271Z,11.20
2022-09-30T00:45:24.462Z,11.20
2022-09-30T00:47:56.240Z,11.20
2022-09-30T00:50:37.055Z,11.20
2022-09-30T00:53:13.752Z,11.30
2022-09-30T00:55:51.574Z,11.30
2022-09-30T00:58:30.147Z,11.40
2022-09-30T01:01:01.799Z,11.40
2022-09-30T01:03:33.020Z,11.40
2022-09-30T01:06:03.171Z,11.40
2022-09-30T01:08:37.753Z,11.40
2022-09-30T01:11:08.457Z,11.40
2022-09-30T01:13:40.287Z,11.40
2022-09-30T01:16:31.000Z,11.40
2022-09-30T01:19:25.695Z,11.40
2022-09-30T01:22:16.126Z,11.30
2022-09-30T01:25:36.253Z,11.30
2022-09-30T01:29:01.628Z,11.30
2022-09-30T01:31:52.548Z,11.30
2022-09-30T01:34:33.002Z,11.40
2022-09-30T01:37:14.028Z,11.40
2022-09-30T01:40:00.958Z,11.40
2022-09-30T01:42:42.434Z,11.40
2022-09-30T01:45:18.404Z,11.40
2022-09-30T01:47:52.995Z,11.40
2022-09-30T01:50:26.209Z,11.40
2022-09-30T01:53:05.367Z,11.40
2022-09-30T01:55:40.093Z,11.30
2022-09-30T01:58:17.198Z,11.40
2022-09-30T02:00:52.141Z,11.40
2022-09-30T02:03:28.911Z,11.40
2022-09-30T02:06:04.898Z,11.40
2022-09-30T02:08:41.457Z,11.40
2022-09-30T02:11:15.354Z,11.40
2022-09-30T02:13:50.371Z,11.30
2022-09-30T02:16:25.665Z,11.40
2022-09-30T02:19:02.018Z,11.40
2022-09-30T02:21:37.634Z,11.40
2022-09-30T02:24:15.970Z,11.40
2022-09-30T02:26:48.664Z,11.40
2022-09-30T02:29:21.538Z,11.40
2022-09-30T02:31:55.810Z,11.30
2022-09-30T02:34:32.371Z,11.30
2022-09-30T02:37:08.440Z,11.30
2022-09-30T02:39:44.886Z,11.30
2022-09-30T02:42:21.270Z,11.30
2022-09-30T02:44:52.464Z,11.40
2022-09-30T02:47:30.249Z,11.40
2022-09-30T02:50:07.039Z,11.40
2022-09-30T02:52:52.414Z,11.40
2022-09-30T02:55:30.557Z,11.30
2022-09-30T02:58:06.213Z,11.30
2022-09-30T03:00:36.008Z,11.20
2022-09-30T03:03:11.744Z,11.20
2022-09-30T03:05:42.179Z,11.20
2022-09-30T03:08:12.258Z,11.20
2022-09-30T03:10:41.994Z,11.20
2022-09-30T03:13:45.481Z,11.20
2022-09-30T03:16:27.865Z,11.20
2022-09-30T03:19:14.051Z,11.20
2022-09-30T03:22:00.154Z,11.20
2022-09-30T03:25:10.230Z,11.20
2022-09-30T03:27:56.062Z,11.10
2022-09-30T03:30:27.802Z,11.10
2022-09-30T03:33:09.531Z,11.10
2022-09-30T03:35:48.936Z,11.10
2022-09-30T03:38:33.498Z,11.00
2022-09-30T03:41:11.298Z,11.10
2022-09-30T03:43:47.898Z,11.10
2022-09-30T03:46:24.262Z,11.10
2022-09-30T03:48:57.351Z,11.00
2022-09-30T03:51:26.981Z,11.00
2022-09-30T03:53:59.375Z,10.90
2022-09-30T03:56:31.758Z,10.80
2022-09-30T03:59:01.362Z,10.80
2022-09-30T04:01:30.442Z,10.70
2022-09-30T04:03:59.394Z,10.70
2022-09-30T04:06:42.760Z,10.60
2022-09-30T04:09:15.890Z,10.60
2022-09-30T04:11:44.907Z,10.60
2022-09-30T04:14:13.898Z,10.60
2022-09-30T04:16:43.051Z,10.60
2022-09-30T04:19:12.679Z,10.60
2022-09-30T04:21:41.850Z,10.60
2022-09-30T04:24:10.978Z,10.60
2022-09-30T04:26:41.394Z,10.60
2022-09-30T04:29:10.374Z,10.60
2022-09-30T04:31:39.405Z,10.60
2022-09-30T04:34:10.260Z,10.50
2022-09-30T04:36:39.769Z,10.50
2022-09-30T04:39:08.789Z,10.50
2022-09-30T04:41:38.303Z,10.40
2022-09-30T04:44:08.916Z,10.40
2022-09-30T04:46:38.242Z,10.50
2022-09-30T04:49:09.376Z,10.50
2022-09-30T04:51:43.976Z,10.40
2022-09-30T04:54:14.119Z,10.40
2022-09-30T04:56:43.193Z,10.30
2022-09-30T04:59:13.503Z,10.30
2022-09-30T05:01:44.542Z,10.20
2022-09-30T05:04:13.713Z,10.20
2022-09-30T05:06:42.793Z,10.20
2022-09-30T05:09:11.831Z,10.20
2022-09-30T05:11:42.562Z,10.10
2022-09-30T05:14:12.843Z,10.10
2022-09-30T05:16:41.910Z,10.10
2022-09-30T05:19:10.888Z,10.20
2022-09-30T05:21:40.850Z,10.20
2022-09-30T05:24:09.749Z,10.20
2022-09-30T05:26:40.154Z,10.20
2022-09-30T05:29:10.617Z,10.10
2022-09-30T05:31:42.461Z,10.20
2022-09-30T05:34:11.527Z,10.20
2022-09-30T05:36:40.599Z,10.20
2022-09-30T05:39:09.623Z,10.10
2022-09-30T05:41:38.978Z,10.10
2022-09-30T05:44:09.188Z,10.00
2022-09-30T05:46:44.035Z,10.00
2022-09-30T05:49:13.059Z,10.00
2022-09-30T05:51:42.043Z,10.10
2022-09-30T05:54:11.287Z,10.20
2022-09-30T05:56:43.568Z,10.30
2022-09-30T05:59:13.460Z,10.50
2022-09-30T06:01:44.123Z,10.60
2022-09-30T06:04:13.373Z,10.70
2022-09-30T06:06:42.542Z,10.90
2022-09-30T06:09:11.700Z,11.00
2022-09-30T06:11:42.503Z,11.20
2022-09-30T06:14:11.570Z,11.30
2022-09-30T06:16:41.470Z,11.40
2022-09-30T06:19:17.425Z,11.50
2022-09-30T06:21:49.201Z,11.60
2022-09-30T06:24:18.338Z,11.60
2022-09-30T06:26:47.293Z,11.70
2022-09-30T06:29:16.473Z,11.70
2022-09-30T06:31:46.968Z,11.70
2022-09-30T06:34:17.513Z,11.70
2022-09-30T06:36:46.567Z,11.80
2022-09-30T06:39:15.642Z,11.80
2022-09-30T06:41:44.622Z,11.70
2022-09-30T06:44:26.774Z,11.70
2022-09-30T06:46:55.925Z,11.70
2022-09-30T06:49:29.092Z,11.60
2022-09-30T06:52:00.974Z,11.60
2022-09-30T06:54:30.007Z,11.50
2022-09-30T06:56:59.098Z,11.50
2022-09-30T06:59:28.263Z,11.50
2022-09-30T07:01:57.483Z,11.40
2022-09-30T07:04:28.009Z,11.20
2022-09-30T07:06:57.827Z,11.20
2022-09-30T07:09:27.105Z,11.10
2022-09-30T07:11:56.382Z,11.00
2022-09-30T07:14:25.552Z,11.00
2022-09-30T07:16:54.501Z,11.00
2022-09-30T07:19:23.652Z,11.00
2022-09-30T07:21:54.111Z,11.00
2022-09-30T07:24:23.141Z,10.80
2022-09-30T07:26:52.273Z,10.80
2022-09-30T07:29:21.358Z,10.80
2022-09-30T07:31:50.450Z,10.80
2022-09-30T07:34:19.502Z,10.70
2022-09-30T07:36:49.447Z,10.70
2022-09-30T07:39:19.900Z,10.60
2022-09-30T07:41:48.923Z,10.60
2022-09-30T07:44:18.407Z,10.60
2022-09-30T07:46:48.011Z,10.70
2022-09-30T07:49:24.181Z,10.70
2022-09-30T07:51:57.007Z,10.80
2022-09-30T07:54:29.804Z,10.80
2022-09-30T07:57:15.972Z,10.90
2022-09-30T07:59:45.197Z,11.00
2022-09-30T08:02:20.653Z,11.10
2022-09-30T08:04:49.641Z,11.20
2022-09-30T08:07:19.500Z,11.30
2022-09-30T08:09:50.192Z,11.30
2022-09-30T08:12:19.247Z,11.40
2022-09-30T08:14:48.369Z,11.50
2022-09-30T08:17:17.363Z,11.60
2022-09-30T08:19:46.303Z,11.60
2022-09-30T08:22:16.493Z,11.60
2022-09-30T08:24:45.450Z,11.70
2022-09-30T08:27:15.809Z,11.70
2022-09-30T08:30:04.222Z,11.70
2022-09-30T08:32:34.063Z,11.60
2022-09-30T08:35:03.375Z,11.60
2022-09-30T08:37:32.850Z,11.60
2022-09-30T08:40:02.497Z,11.50
2022-09-30T08:43:04.644Z,11.60
2022-09-30T08:45:45.595Z,11.60
2022-09-30T08:48:36.099Z,11.70
2022-09-30T08:51:24.851Z,11.80
2022-09-30T08:53:56.451Z,11.80
2022-09-30T08:56:29.271Z,11.90
2022-09-30T08:59:06.633Z,12.00
2022-09-30T09:01:37.876Z,12.10
2022-09-30T09:04:08.921Z,12.10
2022-09-30T09:06:50.509Z,12.20
2022-09-30T09:09:45.195Z,12.30
2022-09-30T09:12:28.932Z,12.40
2022-09-30T09:15:23.547Z,12.50
2022-09-30T09:18:25.251Z,12.50
2022-09-30T09:20:59.856Z,12.60
2022-09-30T09:23:34.357Z,12.60
2022-09-30T09:26:05.080Z,12.60
2022-09-30T09:28:41.649Z,12.60
2022-09-30T09:31:17.984Z,12.60
2022-09-30T09:33:47.319Z,12.70
2022-09-30T09:36:32.362Z,12.70
2022-09-30T09:39:24.607Z,12.70
2022-09-30T09:42:05.278Z,12.70
2022-09-30T09:44:40.805Z,12.80
2022-09-30T09:47:17.227Z,12.80
2022-09-30T09:49:48.011Z,12.90
2022-09-30T09:52:45.786Z,13.00
2022-09-30T09:55:18.314Z,13.00
2022-09-30T09:57:47.336Z,13.00
2022-09-30T10:00:43.597Z,13.20
2022-09-30T10:03:20.503Z,13.20
2022-09-30T10:06:03.918Z,13.30
2022-09-30T10:08:36.181Z,13.40
2022-09-30T10:11:08.237Z,13.40
2022-09-30T10:13:45.664Z,13.50
2022-09-30T10:16:39.059Z,13.60
2022-09-30T10:19:22.027Z,13.70
2022-09-30T10:21:53.985Z,13.80
2022-09-30T10:24:31.564Z,13.80
2022-09-30T10:27:00.880Z,13.90
2022-09-30T10:29:33.031Z,13.90
2022-09-30T10:32:04.587Z,14.00
2022-09-30T10:34:39.077Z,14.10
2022-09-30T10:37:15.486Z,14.20
2022-09-30T10:39:53.405Z,14.30
2022-09-30T10:42:26.818Z,14.30
2022-09-30T10:44:58.957Z,14.50
2022-09-30T10:47:31.395Z,14.60
2022-09-30T10:50:11.893Z,14.70
2022-09-30T10:52:48.668Z,14.80
2022-09-30T10:55:32.493Z,14.90
2022-09-30T10:58:23.701Z,14.90
2022-09-30T11:00:59.861Z,15.00
2022-09-30T11:03:36.590Z,15.00
2022-09-30T11:06:08.455Z,15.00
2022-09-30T11:08:44.582Z,15.10
2022-09-30T11:11:19.667Z,15.20
2022-09-30T11:13:57.041Z,15.30
2022-09-30T11:16:33.265Z,15.30
2022-09-30T11:19:10.688Z,15.50
2022-09-30T11:21:47.331Z,15.70
2022-09-30T11:24:27.691Z,15.50
2022-09-30T11:27:07.003Z,15.70
2022-09-30T11:29:56.112Z,15.70
2022-09-30T11:32:40.778Z,15.80
2022-09-30T11:35:30.766Z,15.90
2022-09-30T11:38:23.580Z,15.90
2022-09-30T11:41:03.338Z,15.90
2022-09-30T11:43:45.990Z,15.90
2022-09-30T11:46:51.088Z,15.90
2022-09-30T11:49:45.598Z,16.00
2022-09-30T11:52:21.542Z,16.10
2022-09-30T11:55:15.339Z,16.20
2022-09-30T11:57:54.464Z,16.20
2022-09-30T12:00:24.315Z,16.40
2022-09-30T12:02:56.886Z,16.40
2022-09-30T12:05:33.035Z,16.50
2022-09-30T12:08:11.289Z,16.40
2022-09-30T12:10:47.472Z,16.40
2022-09-30T12:13:22.490Z,16.50
2022-09-30T12:15:55.176Z,16.60
2022-09-30T12:18:29.762Z,16.70
2022-09-30T12:21:03.074Z,16.70
2022-09-30T12:23:37.711Z,16.50
2022-09-30T12:26:09.023Z,16.60
2022-09-30T12:29:03.823Z,16.60
2022-09-30T12:32:06.190Z,16.50
2022-09-30T12:34:53.869Z,16.60
2022-09-30T12:37:44.284Z,16.70
2022-09-30T12:40:39.901Z,16.70
2022-09-30T12:43:56.313Z,16.70
2022-09-30T12:46:46.197Z,16.60
2022-09-30T12:49:21.793Z,16.50
2022-09-30T12:51:56.341Z,16.50
2022-09-30T12:54:29.903Z,16.40
2022-09-30T12:57:03.794Z,16.40
2022-09-30T12:59:43.549Z,16.60
2022-09-30T13:02:31.998Z,16.60
2022-09-30T13:05:47.810Z,16.60
2022-09-30T13:08:50.977Z,16.70
2022-09-30T13:11:38.432Z,16.90
2022-09-30T13:14:26.430Z,16.80
2022-09-30T13:17:36.865Z,16.80
2022-09-30T13:20:56.677Z,16.80
2022-09-30T13:23:42.711Z,16.80
2022-09-30T13:26:48.531Z,16.70
2022-09-30T13:29:39.849Z,16.80
2022-09-30T13:32:12.256Z,16.80
2022-09-30T13:34:58.095Z,16.80
2022-09-30T13:37:45.229Z,16.90
2022-09-30T13:40:37.820Z,17.00
2022-09-30T13:43:19.526Z,17.10
2022-09-30T13:45:51.161Z,17.20
2022-09-30T13:48:26.800Z,17.20
2022-09-30T13:51:01.161Z,17.10
2022-09-30T13:53:34.769Z,17.00
2022-09-30T13:56:09.656Z,17.00
2022-09-30T13:59:20.303Z,17.10
2022-09-30T14:02:27.168Z,17.10
2022-09-30T14:05:44.871Z,17.20
2022-09-30T14:08:42.106Z,17.30
2022-09-30T14:11:42.873Z,17.30
2022-09-30T14:14:52.563Z,17.20
2022-09-30T14:17:41.260Z,17.30
2022-09-30T14:20:38.636Z,17.40
2022-09-30T14:23:17.063Z,17.40
2022-09-30T14:25:56.859Z,17.50
2022-09-30T14:28:33.820Z,17.50
2022-09-30T14:31:13.823Z,17.50
2022-09-30T14:33:48.686Z,17.40
2022-09-30T14:36:21.849Z,17.50
2022-09-30T14:38:57.558Z,17.40
2022-09-30T14:41:29.747Z,17.50
2022-09-30T14:44:07.983Z,17.50
2022-09-30T14:46:41.432Z,17.40
2022-09-30T14:49:16.725Z,17.40
2022-09-30T14:51:48.711Z,17.40
2022-09-30T14:54:21.912Z,17.30
2022-09-30T14:56:54.598Z,17.40
2022-09-30T14:59:27.121Z,17.40
2022-09-30T15:02:01.047Z,17.50
2022-09-30T15:04:32.608Z,17.40
2022-09-30T15:07:03.421Z,17.50
2022-09-30T15:09:37.227Z,17.50
2022-09-30T15:12:08.768Z,17.60
2022-09-30T15:14:48.124Z,17.60
2022-09-30T15:17:21.514Z,17.70
2022-09-30T15:19:55.925Z,17.70
2022-09-30T15:22:28.451Z,17.70
2022-09-30T15:25:00.701Z,17.80
2022-09-30T15:27:32.954Z,17.60
2022-09-30T15:30:05.828Z,17.50
2022-09-30T15:32:36.666Z,17.50
2022-09-30T15:35:08.521Z,17.30
2022-09-30T15:37:40.806Z,17.20
2022-09-30T15:40:35.484Z,17.10
2022-09-30T15:43:06.938Z,17.20
2022-09-30T15:45:39.392Z,17.20
2022-09-30T15:48:35.864Z,17.10
2022-09-30T15:51:30.891Z,17.10
2022-09-30T15:54:01.468Z,17.20
2022-09-30T15:56:37.725Z,17.10
2022-09-30T15:59:08.691Z,17.00
2022-09-30T16:01:39.652Z,17.00
2022-09-30T16:04:15.412Z,16.90
2022-09-30T16:06:49.053Z,16.80
2022-09-30T16:09:27.323Z,16.80
2022-09-30T16:12:05.609Z,16.80
2022-09-30T16:14:43.043Z,16.80
2022-09-30T16:17:19.478Z,16.80
2022-09-30T16:19:53.523Z,16.80
2022-09-30T16:22:50.245Z,16.80
2022-09-30T16:25:26.404Z,16.80
2022-09-30T16:27:59.964Z,16.90
2022-09-30T16:30:32.192Z,16.80
2022-09-30T16:33:06.818Z,16.80
2022-09-30T16:35:35.971Z,16.90
2022-09-30T16:38:07.707Z,16.80
2022-09-30T16:40:37.968Z,16.80
2022-09-30T16:43:12.436Z,16.80
2022-09-30T16:45:45.215Z,16.80
2022-09-30T16:48:19.848Z,16.70
2022-09-30T16:50:57.454Z,16.70
2022-09-30T16:53:26.585Z,16.60
2022-09-30T16:55:56.307Z,16.60
2022-09-30T16:58:28.125Z,16.60
2022-09-30T17:01:04.724Z,16.50
2022-09-30T17:03:34.116Z,16.40
2022-09-30T17:06:07.801Z,16.40
2022-09-30T17:08:39.522Z,16.30
2022-09-30T17:11:23.269Z,16.20
2022-09-30T17:13:58.987Z,16.20
2022-09-30T17:16:29.226Z,16.00
2022-09-30T17:18:59.229Z,16.00
2022-09-30T17:21:29.331Z,15.90
2022-09-30T17:23:58.977Z,15.80
2022-09-30T17:26:35.058Z,15.70
2022-09-30T17:29:28.086Z,15.60
2022-09-30T17:31:58.216Z,15.50
2022-09-30T17:34:30.197Z,15.40
2022-09-30T17:36:59.968Z,15.30
2022-09-30T17:39:31.140Z,15.20
2022-09-30T17:42:33.682Z,15.10
2022-09-30T17:45:04.057Z,15.00
2022-09-30T17:47:33.419Z,14.90
2022-09-30T17:50:04.967Z,14.80
2022-09-30T17:52:34.779Z,14.70
2022-09-30T17:55:03.890Z,14.70
2022-09-30T17:57:38.419Z,14.60
2022-09-30T18:00:12.202Z,14.60
2022-09-30T18:02:44.626Z,14.40
2022-09-30T18:05:14.465Z,14.30
2022-09-30T18:07:43.493Z,14.30
2022-09-30T18:10:12.504Z,14.20
2022-09-30T18:12:41.670Z,14.20
2022-09-30T18:15:18.437Z,14.10
2022-09-30T18:17:48.020Z,14.10
2022-09-30T18:20:21.923Z,14.00
2022-09-30T18:23:03.846Z,13.90
2022-09-30T18:25:35.804Z,13.90
2022-09-30T18:28:06.063Z,13.80
2022-09-30T18:30:36.875Z,13.80
2022-09-30T18:33:07.141Z,13.70
2022-09-30T18:35:39.698Z,13.70
2022-09-30T18:38:14.966Z,13.70
2022-09-30T18:40:50.559Z,13.70
2022-09-30T18:43:20.630Z,13.60
2022-09-30T18:46:04.268Z,13.60
2022-09-30T18:48:36.973Z,13.60
2022-09-30T18:51:06.996Z,13.60
2022-09-30T18:53:37.054Z,13.60
2022-09-30T18:56:06.839Z,13.50
2022-09-30T18:58:37.404Z,13.50
2022-09-30T19:01:14.609Z,13.50
2022-09-30T19:03:44.108Z,13.50
2022-09-30T19:06:17.756Z,13.40
2022-09-30T19:08:47.608Z,13.40
2022-09-30T19:11:17.571Z,13.40
2022-09-30T19:13:51.176Z,13.40
2022-09-30T19:16:22.511Z,13.30
2022-09-30T19:19:01.174Z,13.30
2022-09-30T19:21:30.552Z,13.30
2022-09-30T19:24:00.380Z,13.10
2022-09-30T19:26:30.097Z,13.10
2022-09-30T19:28:59.229Z,13.00
2022-09-30T19:31:29.916Z,12.90
2022-09-30T19:34:01.298Z,12.80
2022-09-30T19:36:41.367Z,12.70
2022-09-30T19:39:16.179Z,12.70
2022-09-30T19:41:46.257Z,12.80
2022-09-30T19:44:18.610Z,12.80
2022-09-30T19:46:50.211Z,12.80
2022-09-30T19:49:21.562Z,12.70
2022-09-30T19:51:52.563Z,12.60
2022-09-30T19:54:33.668Z,12.70
2022-09-30T19:57:07.147Z,12.70
2022-09-30T19:59:36.229Z,12.60
2022-09-30T20:02:06.650Z,12.50
2022-09-30T20:04:35.619Z,12.60
2022-09-30T20:07:04.555Z,12.60
2022-09-30T20:09:33.699Z,12.50
2022-09-30T20:12:02.971Z,12.40
2022-09-30T20:14:49.573Z,12.30
2022-09-30T20:17:20.811Z,12.30
2022-09-30T20:20:09.881Z,12.30
2022-09-30T20:22:38.878Z,12.20
2022-09-30T20:25:09.091Z,12.20
2022-09-30T20:27:42.857Z,12.20
2022-09-30T20:30:12.730Z,12.10
2022-09-30T20:32:43.099Z,12.10
2022-09-30T20:35:12.923Z,12.00
2022-09-30T20:37:43.179Z,12.00
2022-09-30T20:40:12.257Z,12.00
2022-09-30T20:42:41.261Z,11.90
2022-09-30T20:45:11.783Z,11.90
2022-09-30T20:47:44.855Z,11.80
2022-09-30T20:50:14.095Z,11.80
2022-09-30T20:52:43.350Z,11.80
2022-09-30T20:55:15.658Z,11.70
2022-09-30T20:57:45.854Z,11.70
2022-09-30T21:00:16.219Z,11.70
2022-09-30T21:02:46.572Z,11.70
2022-09-30T21:06:49.755Z,11.70
2022-09-30T21:09:41.459Z,11.70
2022-09-30T21:12:24.463Z,11.80
2022-09-30T21:25:27.805Z,11.60
2022-09-30T21:27:56.796Z,11.50
2022-09-30T21:30:27.015Z,11.50
2022-09-30T21:32:55.906Z,11.50
2022-09-30T21:35:24.960Z,11.50
2022-09-30T21:37:53.915Z,11.60
2022-09-30T21:40:22.851Z,11.60
2022-09-30T21:42:53.093Z,11.50
2022-09-30T21:45:22.109Z,11.50
2022-09-30T21:47:51.005Z,11.50
2022-09-30T21:50:19.968Z,11.50
2022-09-30T21:52:49.160Z,11.50
2022-09-30T21:55:18.919Z,11.50
2022-09-30T21:57:47.914Z,11.40
2022-09-30T22:00:18.408Z,11.40
2022-09-30T22:02:47.373Z,11.40
2022-09-30T22:05:20.520Z,11.40
2022-09-30T22:07:50.390Z,11.40
2022-09-30T22:10:19.354Z,11.40
2022-09-30T22:12:49.956Z,11.50
2022-09-30T22:15:20.670Z,11.40
2022-09-30T22:17:51.802Z,11.50
2022-09-30T22:20:21.481Z,11.50
2022-09-30T22:22:50.411Z,11.50
2022-09-30T22:25:24.392Z,11.50
2022-09-30T22:27:55.836Z,11.50
2022-09-30T22:30:27.928Z,11.50
2022-09-30T22:33:11.194Z,11.50
2022-09-30T22:35:57.860Z,11.50
2022-09-30T22:38:29.601Z,11.50
2022-09-30T22:40:59.340Z,11.40
2022-09-30T22:43:28.569Z,11.40
2022-09-30T22:46:08.048Z,11.30
2022-09-30T22:48:37.251Z,11.30
2022-09-30T22:51:06.666Z,11.30
2022-09-30T22:53:40.981Z,11.30
2022-09-30T22:56:13.300Z,11.30
2022-09-30T22:58:49.450Z,11.20
2022-09-30T23:01:20.195Z,11.20
2022-09-30T23:03:53.910Z,11.30
2022-09-30T23:06:28.047Z,11.20
2022-09-30T23:09:00.100Z,11.20
2022-09-30T23:11:45.996Z,11.20
2022-09-30T23:14:16.239Z,11.20
2022-09-30T23:16:51.292Z,11.10
2022-09-30T23:19:21.020Z,11.10
2022-09-30T23:21:52.698Z,11.00
2022-09-30T23:24:21.788Z,11.00
2022-09-30T23:26:50.913Z,11.00
2022-09-30T23:29:19.953Z,11.00
2022-09-30T23:31:52.720Z,10.90
2022-09-30T23:34:21.717Z,10.90
2022-09-30T23:36:50.694Z,10.90
2022-09-30T23:39:20.843Z,10.80
2022-09-30T23:41:51.222Z,10.80
2022-09-30T23:44:20.154Z,10.80
2022-09-30T23:47:07.898Z,10.70
2022-09-30T23:49:36.928Z,10.70
2022-09-30T23:52:10.477Z,10.70
2022-09-30T23:54:41.891Z,10.70
2022-09-30T23:57:11.866Z,10.70
2022-09-30T23:59:40.951Z,10.80
